Latest Weather Observations for Croker Island Airport

IDD60801

Issued at 9:31 am CST Monday 2 February 2015 (issued every 30 minutes, with the page automatically refreshed every 10 minutes)

About weather observations | Map of weather stations | Latest weather observations for NT | Other Formats
Station Details ID: 014308 Name: CROKER ISLAND AIRPORT Lat: -11.16 Lon: 132.48 Height: 9.2 m
Data from the previous 72 hours. | See also: Recent months for locations in Northern Territory
Date/Time
CST
Temp
°C
App
Temp
°C
Dew
Point
Rel
Hum
%
Delta-T
°C
Wind Press
QNH
hPa
Press
MSL
hPa
Rain
since 9 am
mm
Dir
 
Spd
km/h
Gust
km/h
Spd
kts
Gust
kts
02/09:30am - - - - - W 6 9 3 5 1009.5 1009.4 -
02/09:00am - - - - - W 7 11 4 6 1009.4 1009.3 -
02/08:30am - - - - - W 7 13 4 7 1009.0 1008.9 -
02/08:00am - - - - - W 9 13 5 7 1008.7 1008.6 -
02/07:30am - - - - - W 11 13 6 7 1008.4 1008.3 -
02/07:00am - - - - - WNW 13 17 7 9 1008.2 1008.1 -
02/06:30am - - - - - WNW 11 17 6 9 1008.0 1007.9 -
02/06:00am - - - - - WNW 13 19 7 10 1007.3 1007.2 -
02/05:30am - - - - - WNW 11 17 6 9 1007.0 1006.9 -
02/05:00am - - - - - WNW 13 19 7 10 1007.1 1007.0 -
02/04:30am - - - - - W 11 15 6 8 1007.0 1006.9 -
02/04:00am - - - - - W 7 11 4 6 1007.3 1007.2 -
02/03:30am - - - - - WSW 6 9 3 5 1007.3 1007.2 -
02/03:00am - - - - - W 6 9 3 5 1007.4 1007.3 -
02/02:30am - - - - - W 7 11 4 6 1007.4 1007.3 -
02/02:00am - - - - - SW 7 9 4 5 1007.6 1007.5 -
02/01:30am - - - - - SW 7 9 4 5 1008.1 1008.0 -
02/01:00am - - - - - WSW 7 11 4 6 1008.5 1008.4 -
02/12:30am - - - - - WNW 7 11 4 6 1008.9 1008.8 -
02/12:00am - - - - - W 9 11 5 6 1009.0 1008.9 -
 
Date/Time
CST
Temp
°C
App
Temp
°C
Dew
Point
Rel
Hum
%
Delta-T
°C
Wind Press
QNH
hPa
Press
MSL
hPa
Rain
since 9 am
mm
Dir
 
Spd
km/h
Gust
km/h
Spd
kts
Gust
kts
01/11:30pm - - - - - WSW 9 13 5 7 1009.2 1009.1 -
01/11:00pm - - - - - W 9 15 5 8 1009.4 1009.3 -
01/10:30pm - - - - - W 11 15 6 8 1009.2 1009.1 -
01/10:00pm - - - - - W 9 13 5 7 1008.7 1008.6 -
01/09:30pm - - - - - W 9 13 5 7 1008.0 1007.9 -
01/09:00pm - - - - - W 13 17 7 9 1007.8 1007.7 -
01/08:30pm - - - - - W 15 20 8 11 1007.8 1007.7 -
01/08:00pm - - - - - W 17 22 9 12 1007.5 1007.4 -
01/07:30pm - - - - - W 20 30 11 16 1007.3 1007.2 -
01/07:00pm - - - - - WNW 22 28 12 15 1007.0 1006.9 -
01/06:30pm - - - - - WNW 22 32 12 17 1006.9 1006.8 -
01/06:00pm - - - - - WNW 22 32 12 17 1006.5 1006.4 -
01/05:30pm - - - - - WNW 22 30 12 16 1006.2 1006.1 -
01/05:00pm - - - - - WNW 22 30 12 16 1006.2 1006.1 -
01/04:30pm - - - - - WNW 22 30 12 16 1006.0 1005.9 -
01/04:00pm - - - - - WNW 19 30 10 16 1006.1 1006.0 -
01/03:30pm - - - - - WNW 20 30 11 16 1006.3 1006.2 -
01/03:00pm - - - - - WNW 20 32 11 17 1006.5 1006.4 -
01/02:30pm - - - - - NW 19 28 10 15 1006.7 1006.6 -
01/02:00pm - - - - - WNW 17 26 9 14 1007.3 1007.2 -
01/01:30pm - - - - - WNW 17 24 9 13 1007.6 1007.5 -
01/01:00pm - - - - - W 17 26 9 14 1007.8 1007.7 -
01/12:30pm - - - - - W 17 28 9 15 1008.4 1008.3 -
01/12:00pm - - - - - W 19 32 10 17 1008.7 1008.6 -
01/11:30am - - - - - W 20 28 11 15 1008.9 1008.8 -
01/11:00am - - - - - W 19 24 10 13 1009.1 1009.0 -
01/10:30am - - - - - W 17 24 9 13 1009.3 1009.2 -
01/10:00am - - - - - W 22 30 12 16 1009.3 1009.2 -
01/09:30am - - - - - W 19 26 10 14 1009.4 1009.3 -
01/09:00am - - - - - W 19 26 10 14 1009.2 1009.1 -
01/08:30am - - - - - W 20 28 11 15 1009.0 1008.9 -
01/08:00am - - - - - W 20 28 11 15 1008.7 1008.6 -
01/07:30am - - - - - W 19 26 10 14 1008.4 1008.3 -
01/07:00am - - - - - W 17 22 9 12 1007.8 1007.7 -
01/06:30am - - - - - WSW 19 24 10 13 1007.6 1007.5 -
01/06:00am - - - - - W 19 24 10 13 1007.3 1007.2 -
01/05:30am - - - - - W 20 28 11 15 1007.2 1007.1 -
01/05:00am - - - - - WNW 17 24 9 13 1007.2 1007.1 -
01/04:30am - - - - - W 15 20 8 11 1007.1 1007.0 -
01/04:00am - - - - - W 13 19 7 10 1006.9 1006.8 -
01/03:30am - - - - - W 13 20 7 11 1006.9 1006.8 -
01/03:00am - - - - - W 15 22 8 12 1007.2 1007.1 -
01/02:30am - - - - - W 17 22 9 12 1007.3 1007.2 -
01/02:00am - - - - - W 17 24 9 13 1007.5 1007.4 -
01/01:30am - - - - - WNW 15 20 8 11 1007.9 1007.8 -
01/01:00am - - - - - WNW 13 19 7 10 1008.3 1008.2 -
01/12:30am - - - - - WNW 13 19 7 10 1008.4 1008.3 -
01/12:00am - - - - - WNW 17 22 9 12 1008.7 1008.6 -
 
Date/Time
CST
Temp
°C
App
Temp
°C
Dew
Point
Rel
Hum
%
Delta-T
°C
Wind Press
QNH
hPa
Press
MSL
hPa
Rain
since 9 am
mm
Dir
 
Spd
km/h
Gust
km/h
Spd
kts
Gust
kts
31/11:30pm - - - - - WNW 11 17 6 9 1008.8 1008.7 -
31/11:00pm - - - - - WNW 13 17 7 9 1009.2 1009.1 -
31/10:30pm - - - - - W 13 19 7 10 1009.4 1009.3 -
31/10:00pm - - - - - WNW 13 17 7 9 1009.3 1009.2 -
31/09:30pm - - - - - WNW 11 19 6 10 1008.8 1008.7 -
31/09:00pm - - - - - WNW 11 19 6 10 1008.8 1008.7 -
31/08:30pm - - - - - W 17 22 9 12 1008.6 1008.5 -
31/08:00pm - - - - - W 13 19 7 10 1007.8 1007.7 -
31/07:30pm - - - - - WNW 13 19 7 10 1007.2 1007.1 -
31/07:00pm - - - - - WNW 20 28 11 15 1006.4 1006.3 -
31/06:30pm - - - - - WNW 17 24 9 13 1006.0 1005.9 -
31/06:00pm - - - - - WNW 11 19 6 10 1006.4 1006.3 -
31/05:30pm - - - - - NW 6 9 3 5 1006.5 1006.4 -
31/05:00pm - - - - - SW 7 11 4 6 1006.5 1006.4 -
31/04:30pm - - - - - SSW 22 32 12 17 1007.0 1006.9 -
31/04:00pm - - - - - WNW 26 37 14 20 1006.5 1006.4 -
31/03:30pm - - - - - WNW 22 32 12 17 1006.2 1006.1 -
31/03:00pm - - - - - WNW 20 28 11 15 1006.3 1006.2 -
31/02:30pm - - - - - WNW 22 32 12 17 1006.6 1006.5 -
31/02:00pm - - - - - WNW 20 30 11 16 1006.8 1006.7 -
31/01:30pm - - - - - WNW 22 32 12 17 1007.5 1007.4 -
31/01:00pm - - - - - WNW 20 32 11 17 1007.6 1007.5 -
31/12:30pm - - - - - WNW 19 26 10 14 1007.9 1007.8 -
31/12:00pm - - - - - WNW 17 26 9 14 1008.4 1008.3 -
31/11:30am - - - - - WNW 15 22 8 12 1008.8 1008.7 -
31/11:00am - - - - - W 15 20 8 11 1008.9 1008.8 -
31/10:30am - - - - - W 15 22 8 12 1009.0 1008.9 -
31/10:00am - - - - - W 19 28 10 15 1009.0 1008.9 -
31/09:30am - - - - - W 17 24 9 13 1009.0 1008.9 -
31/09:00am - - - - - W 20 26 11 14 1009.0 1008.9 -
31/08:30am - - - - - W 19 26 10 14 1008.8 1008.7 -
31/08:00am - - - - - WNW 20 28 11 15 1008.5 1008.4 -
31/07:30am - - - - - WNW 19 26 10 14 1008.0 1007.9 -
31/07:00am - - - - - WNW 19 24 10 13 1008.1 1008.0 -
31/06:30am - - - - - WNW 15 22 8 12 1008.1 1008.0 -
31/06:00am - - - - - WNW 19 24 10 13 1008.2 1008.1 -
31/05:30am - - - - - WNW 15 20 8 11 1008.0 1007.9 -
31/05:00am - - - - - WNW 13 19 7 10 1008.1 1008.0 -
31/04:30am - - - - - W 13 17 7 9 1008.1 1008.0 -
31/04:00am - - - - - W 11 17 6 9 1007.7 1007.6 -
31/03:30am - - - - - W 11 15 6 8 1007.6 1007.5 -
31/03:00am - - - - - W 13 17 7 9 1007.6 1007.5 -
31/02:30am - - - - - WNW 13 19 7 10 1007.8 1007.7 -
31/02:00am - - - - - W 15 20 8 11 1008.1 1008.0 -
31/01:30am - - - - - W 15 19 8 10 1008.6 1008.5 -
31/01:00am - - - - - WNW 13 17 7 9 1008.8 1008.7 -
31/12:30am - - - - - W 11 17 6 9 1009.2 1009.1 -
31/12:00am - - - - - W 13 17 7 9 1009.2 1009.1 -
 
Date/Time
CST
Temp
°C
App
Temp
°C
Dew
Point
Rel
Hum
%
Delta-T
°C
Wind Press
QNH
hPa
Press
MSL
hPa
Rain
since 9 am
mm
Dir
 
Spd
km/h
Gust
km/h
Spd
kts
Gust
kts
30/11:30pm - - - - - W 11 15 6 8 1009.7 1009.6 -
30/11:00pm - - - - - W 11 15 6 8 1009.8 1009.7 -
30/10:30pm - - - - - W 13 17 7 9 1009.9 1009.8 -
30/10:00pm - - - - - W 11 17 6 9 1009.8 1009.7 -
30/09:30pm - - - - - W 13 17 7 9 1009.3 1009.2 -
30/09:00pm - - - - - W 13 19 7 10 1009.0 1008.9 -
30/08:30pm - - - - - W 17 20 9 11 1008.5 1008.4 -
30/08:00pm - - - - - WNW 19 26 10 14 1007.9 1007.8 -
30/07:30pm - - - - - WNW 19 26 10 14 1007.6 1007.5 -
30/07:00pm - - - - - WNW 17 24 9 13 1007.4 1007.3 -
30/06:30pm - - - - - WNW 17 24 9 13 1007.2 1007.1 -
30/06:00pm - - - - - WNW 20 28 11 15 1007.0 1006.9 -
30/05:30pm - - - - - WNW 22 30 12 16 1006.7 1006.6 -
30/05:00pm - - - - - WNW 19 28 10 15 1006.2 1006.1 -
30/04:30pm - - - - - WNW 19 28 10 15 1005.9 1005.8 -
30/04:00pm - - - - - W 19 26 10 14 1006.3 1006.2 -
30/03:30pm - - - - - WNW 15 26 8 14 1006.3 1006.2 -
30/03:00pm - - - - - WNW 11 17 6 9 1006.4 1006.3 -
30/02:30pm - - - - - WNW 11 17 6 9 1007.0 1006.9 -
30/02:00pm - - - - - W 19 26 10 14 1007.4 1007.3 -
30/01:30pm - - - - - W 20 30 11 16 1008.0 1007.9 -
30/01:00pm - - - - - W 24 35 13 19 1008.6 1008.5 -
30/12:30pm - - - - - W 33 48 18 26 1009.2 1009.1 -
30/12:00pm - - - - - WNW 22 32 12 17 1008.9 1008.8 -
30/11:30am - - - - - WNW 20 30 11 16 1009.0 1008.9 -
30/11:00am - - - - - WNW 20 32 11 17 1009.2 1009.1 -
30/10:30am - - - - - WNW 19 30 10 16 1009.1 1009.0 -
30/10:00am - - - - - WNW 20 28 11 15 1009.1 1009.0 -

Other Formats:

Comma delimited format used in spreadsheet applications
http://www.bom.gov.au/fwo/IDD60801/IDD60801.94108.axf

JavaScript Object Notation format (JSON) in row-major order
http://www.bom.gov.au/fwo/IDD60801/IDD60801.94108.json